sensor_id;sensor_type;location;lat;lon;timestamp;P1;durP1;ratioP1;P2;durP2;ratioP2
21424;SDS011;10873;51.132;16.848;2024-02-26T00:00:10;49.90;;;28.45;;
21424;SDS011;10873;51.132;16.848;2024-02-26T00:02:58;54.30;;;29.40;;
21424;SDS011;10873;51.132;16.848;2024-02-26T00:05:27;58.80;;;31.85;;
21424;SDS011;10873;51.132;16.848;2024-02-26T00:08:13;64.30;;;33.28;;
21424;SDS011;10873;51.132;16.848;2024-02-26T00:10:40;67.35;;;34.47;;
21424;SDS011;10873;51.132;16.848;2024-02-26T00:13:07;64.93;;;34.45;;
21424;SDS011;10873;51.132;16.848;2024-02-26T00:15:34;63.33;;;33.17;;
21424;SDS011;10873;51.132;16.848;2024-02-26T00:18:00;59.40;;;32.53;;
21424;SDS011;10873;51.132;16.848;2024-02-26T00:20:27;59.35;;;31.70;;
21424;SDS011;10873;51.132;16.848;2024-02-26T00:22:53;58.90;;;31.80;;
21424;SDS011;10873;51.132;16.848;2024-02-26T00:25:20;58.28;;;30.55;;
21424;SDS011;10873;51.132;16.848;2024-02-26T00:27:50;58.03;;;31.40;;
21424;SDS011;10873;51.132;16.848;2024-02-26T00:30:16;56.40;;;30.52;;
21424;SDS011;10873;51.132;16.848;2024-02-26T00:32:42;53.33;;;29.17;;
21424;SDS011;10873;51.132;16.848;2024-02-26T00:35:09;50.92;;;27.75;;
21424;SDS011;10873;51.132;16.848;2024-02-26T00:37:35;47.25;;;26.60;;
21424;SDS011;10873;51.132;16.848;2024-02-26T00:40:01;46.47;;;26.75;;
21424;SDS011;10873;51.132;16.848;2024-02-26T00:42:27;46.70;;;26.05;;
21424;SDS011;10873;51.132;16.848;2024-02-26T00:44:54;44.53;;;25.10;;
21424;SDS011;10873;51.132;16.848;2024-02-26T00:47:20;44.72;;;25.55;;
21424;SDS011;10873;51.132;16.848;2024-02-26T00:49:46;43.90;;;23.95;;
21424;SDS011;10873;51.132;16.848;2024-02-26T00:52:12;42.50;;;23.45;;
21424;SDS011;10873;51.132;16.848;2024-02-26T00:54:39;41.40;;;22.70;;
21424;SDS011;10873;51.132;16.848;2024-02-26T00:57:05;37.25;;;21.90;;
21424;SDS011;10873;51.132;16.848;2024-02-26T00:59:31;36.38;;;21.02;;
21424;SDS011;10873;51.132;16.848;2024-02-26T01:01:58;35.67;;;21.42;;
21424;SDS011;10873;51.132;16.848;2024-02-26T01:04:27;34.63;;;20.38;;
21424;SDS011;10873;51.132;16.848;2024-02-26T01:06:53;31.70;;;19.48;;
21424;SDS011;10873;51.132;16.848;2024-02-26T01:09:19;32.60;;;19.75;;
21424;SDS011;10873;51.132;16.848;2024-02-26T01:11:45;32.05;;;19.20;;
21424;SDS011;10873;51.132;16.848;2024-02-26T01:14:12;30.23;;;19.15;;
21424;SDS011;10873;51.132;16.848;2024-02-26T01:16:38;30.90;;;19.65;;
21424;SDS011;10873;51.132;16.848;2024-02-26T01:19:05;31.35;;;19.40;;
21424;SDS011;10873;51.132;16.848;2024-02-26T01:21:31;30.60;;;19.55;;
21424;SDS011;10873;51.132;16.848;2024-02-26T01:23:58;32.28;;;19.80;;
21424;SDS011;10873;51.132;16.848;2024-02-26T01:26:24;30.67;;;19.77;;
21424;SDS011;10873;51.132;16.848;2024-02-26T01:28:50;32.05;;;18.25;;
21424;SDS011;10873;51.132;16.848;2024-02-26T01:31:16;34.00;;;19.20;;
21424;SDS011;10873;51.132;16.848;2024-02-26T01:33:42;29.05;;;19.00;;
21424;SDS011;10873;51.132;16.848;2024-02-26T01:36:09;31.27;;;18.85;;
21424;SDS011;10873;51.132;16.848;2024-02-26T01:38:35;28.23;;;18.20;;
21424;SDS011;10873;51.132;16.848;2024-02-26T01:41:01;28.30;;;18.38;;
21424;SDS011;10873;51.132;16.848;2024-02-26T01:43:27;30.55;;;18.45;;
21424;SDS011;10873;51.132;16.848;2024-02-26T01:45:53;27.92;;;18.23;;
21424;SDS011;10873;51.132;16.848;2024-02-26T01:48:20;29.23;;;18.40;;
21424;SDS011;10873;51.132;16.848;2024-02-26T01:50:46;29.90;;;18.08;;
21424;SDS011;10873;51.132;16.848;2024-02-26T01:53:13;30.38;;;19.05;;
21424;SDS011;10873;51.132;16.848;2024-02-26T01:55:40;30.02;;;18.75;;
21424;SDS011;10873;51.132;16.848;2024-02-26T01:58:07;30.50;;;18.02;;
21424;SDS011;10873;51.132;16.848;2024-02-26T02:00:34;30.30;;;18.75;;
21424;SDS011;10873;51.132;16.848;2024-02-26T02:03:00;32.72;;;18.73;;
21424;SDS011;10873;51.132;16.848;2024-02-26T02:05:28;31.50;;;19.45;;
21424;SDS011;10873;51.132;16.848;2024-02-26T02:07:56;29.63;;;18.25;;
21424;SDS011;10873;51.132;16.848;2024-02-26T02:10:23;31.90;;;19.30;;
21424;SDS011;10873;51.132;16.848;2024-02-26T02:12:51;32.97;;;19.75;;
21424;SDS011;10873;51.132;16.848;2024-02-26T02:15:17;28.77;;;18.45;;
21424;SDS011;10873;51.132;16.848;2024-02-26T02:17:43;29.27;;;18.85;;
21424;SDS011;10873;51.132;16.848;2024-02-26T02:20:14;30.17;;;18.67;;
21424;SDS011;10873;51.132;16.848;2024-02-26T02:22:44;29.70;;;18.42;;
21424;SDS011;10873;51.132;16.848;2024-02-26T02:25:10;29.10;;;18.50;;
21424;SDS011;10873;51.132;16.848;2024-02-26T02:27:37;29.45;;;18.20;;
21424;SDS011;10873;51.132;16.848;2024-02-26T02:30:04;27.40;;;18.38;;
21424;SDS011;10873;51.132;16.848;2024-02-26T02:32:33;27.33;;;18.02;;
21424;SDS011;10873;51.132;16.848;2024-02-26T02:35:00;30.13;;;19.00;;
21424;SDS011;10873;51.132;16.848;2024-02-26T02:37:27;27.38;;;17.65;;
21424;SDS011;10873;51.132;16.848;2024-02-26T02:39:54;26.30;;;17.27;;
21424;SDS011;10873;51.132;16.848;2024-02-26T02:42:23;25.00;;;16.67;;
21424;SDS011;10873;51.132;16.848;2024-02-26T02:44:49;26.67;;;17.30;;
21424;SDS011;10873;51.132;16.848;2024-02-26T02:47:15;31.50;;;17.48;;
21424;SDS011;10873;51.132;16.848;2024-02-26T02:49:41;25.88;;;16.33;;
21424;SDS011;10873;51.132;16.848;2024-02-26T02:52:08;26.20;;;17.55;;
21424;SDS011;10873;51.132;16.848;2024-02-26T02:54:34;25.83;;;16.98;;
21424;SDS011;10873;51.132;16.848;2024-02-26T02:57:03;26.42;;;16.92;;
21424;SDS011;10873;51.132;16.848;2024-02-26T02:59:29;29.27;;;16.75;;
21424;SDS011;10873;51.132;16.848;2024-02-26T03:01:57;26.38;;;16.92;;
21424;SDS011;10873;51.132;16.848;2024-02-26T03:04:25;27.02;;;16.98;;
21424;SDS011;10873;51.132;16.848;2024-02-26T03:06:51;23.60;;;16.40;;
21424;SDS011;10873;51.132;16.848;2024-02-26T03:09:18;24.42;;;16.23;;
21424;SDS011;10873;51.132;16.848;2024-02-26T03:11:44;23.30;;;15.43;;
21424;SDS011;10873;51.132;16.848;2024-02-26T03:14:16;26.35;;;16.67;;
21424;SDS011;10873;51.132;16.848;2024-02-26T03:16:43;25.38;;;17.00;;
21424;SDS011;10873;51.132;16.848;2024-02-26T03:19:09;24.48;;;16.83;;
21424;SDS011;10873;51.132;16.848;2024-02-26T03:21:35;24.20;;;16.33;;
21424;SDS011;10873;51.132;16.848;2024-02-26T03:24:04;26.15;;;16.02;;
21424;SDS011;10873;51.132;16.848;2024-02-26T03:26:32;25.05;;;16.08;;
21424;SDS011;10873;51.132;16.848;2024-02-26T03:28:58;24.25;;;15.20;;
21424;SDS011;10873;51.132;16.848;2024-02-26T03:31:25;24.63;;;16.15;;
21424;SDS011;10873;51.132;16.848;2024-02-26T03:33:51;23.88;;;15.25;;
21424;SDS011;10873;51.132;16.848;2024-02-26T03:36:17;23.98;;;15.82;;
21424;SDS011;10873;51.132;16.848;2024-02-26T03:38:43;24.65;;;15.30;;
21424;SDS011;10873;51.132;16.848;2024-02-26T03:41:09;23.15;;;15.82;;
21424;SDS011;10873;51.132;16.848;2024-02-26T03:43:35;24.23;;;15.40;;
21424;SDS011;10873;51.132;16.848;2024-02-26T03:46:01;25.88;;;15.98;;
21424;SDS011;10873;51.132;16.848;2024-02-26T03:48:28;22.13;;;14.73;;
21424;SDS011;10873;51.132;16.848;2024-02-26T03:50:55;22.98;;;15.18;;
21424;SDS011;10873;51.132;16.848;2024-02-26T03:53:21;26.55;;;15.98;;
21424;SDS011;10873;51.132;16.848;2024-02-26T03:55:47;20.80;;;14.85;;
21424;SDS011;10873;51.132;16.848;2024-02-26T03:58:14;22.98;;;14.60;;
21424;SDS011;10873;51.132;16.848;2024-02-26T04:00:42;22.55;;;14.77;;
21424;SDS011;10873;51.132;16.848;2024-02-26T04:03:08;23.45;;;15.00;;
21424;SDS011;10873;51.132;16.848;2024-02-26T04:05:35;22.55;;;14.60;;
21424;SDS011;10873;51.132;16.848;2024-02-26T04:08:01;22.40;;;14.68;;
21424;SDS011;10873;51.132;16.848;2024-02-26T04:10:29;20.77;;;14.02;;
21424;SDS011;10873;51.132;16.848;2024-02-26T04:12:55;20.70;;;14.50;;
21424;SDS011;10873;51.132;16.848;2024-02-26T04:15:21;24.00;;;14.43;;
21424;SDS011;10873;51.132;16.848;2024-02-26T04:17:47;24.63;;;15.23;;
21424;SDS011;10873;51.132;16.848;2024-02-26T04:20:14;23.20;;;14.93;;
21424;SDS011;10873;51.132;16.848;2024-02-26T04:22:42;21.48;;;14.38;;
21424;SDS011;10873;51.132;16.848;2024-02-26T04:25:12;25.17;;;14.52;;
21424;SDS011;10873;51.132;16.848;2024-02-26T04:27:38;23.42;;;14.55;;
21424;SDS011;10873;51.132;16.848;2024-02-26T04:30:05;21.98;;;13.50;;
21424;SDS011;10873;51.132;16.848;2024-02-26T04:32:31;21.85;;;13.52;;
21424;SDS011;10873;51.132;16.848;2024-02-26T04:34:58;19.90;;;14.13;;
21424;SDS011;10873;51.132;16.848;2024-02-26T04:37:24;21.25;;;14.43;;
21424;SDS011;10873;51.132;16.848;2024-02-26T04:39:51;21.38;;;13.95;;
21424;SDS011;10873;51.132;16.848;2024-02-26T04:42:17;21.70;;;14.05;;
21424;SDS011;10873;51.132;16.848;2024-02-26T04:44:43;22.83;;;13.98;;
21424;SDS011;10873;51.132;16.848;2024-02-26T04:47:09;18.63;;;13.00;;
21424;SDS011;10873;51.132;16.848;2024-02-26T04:49:36;21.27;;;12.55;;
21424;SDS011;10873;51.132;16.848;2024-02-26T04:52:02;24.75;;;13.55;;
21424;SDS011;10873;51.132;16.848;2024-02-26T04:54:29;21.52;;;13.32;;
21424;SDS011;10873;51.132;16.848;2024-02-26T04:56:56;23.83;;;14.48;;
21424;SDS011;10873;51.132;16.848;2024-02-26T04:59:22;19.67;;;13.40;;
21424;SDS011;10873;51.132;16.848;2024-02-26T05:01:49;19.75;;;13.35;;
21424;SDS011;10873;51.132;16.848;2024-02-26T05:04:17;20.33;;;13.48;;
21424;SDS011;10873;51.132;16.848;2024-02-26T05:06:43;21.20;;;13.50;;
21424;SDS011;10873;51.132;16.848;2024-02-26T05:09:09;24.67;;;14.25;;
21424;SDS011;10873;51.132;16.848;2024-02-26T05:11:35;23.70;;;14.75;;
21424;SDS011;10873;51.132;16.848;2024-02-26T05:14:03;20.10;;;13.32;;
21424;SDS011;10873;51.132;16.848;2024-02-26T05:16:29;21.67;;;13.40;;
21424;SDS011;10873;51.132;16.848;2024-02-26T05:18:57;24.65;;;13.48;;
21424;SDS011;10873;51.132;16.848;2024-02-26T05:21:23;21.65;;;13.32;;
21424;SDS011;10873;51.132;16.848;2024-02-26T05:23:50;18.98;;;13.10;;
21424;SDS011;10873;51.132;16.848;2024-02-26T05:26:19;24.20;;;13.98;;
21424;SDS011;10873;51.132;16.848;2024-02-26T05:28:46;21.25;;;13.73;;
21424;SDS011;10873;51.132;16.848;2024-02-26T05:31:16;20.23;;;13.60;;
21424;SDS011;10873;51.132;16.848;2024-02-26T05:33:44;19.70;;;13.05;;
21424;SDS011;10873;51.132;16.848;2024-02-26T05:36:17;22.05;;;13.20;;
21424;SDS011;10873;51.132;16.848;2024-02-26T05:38:45;19.52;;;12.55;;
21424;SDS011;10873;51.132;16.848;2024-02-26T05:41:13;21.13;;;12.60;;
21424;SDS011;10873;51.132;16.848;2024-02-26T05:43:41;18.25;;;12.75;;
21424;SDS011;10873;51.132;16.848;2024-02-26T05:46:07;19.65;;;12.15;;
21424;SDS011;10873;51.132;16.848;2024-02-26T05:48:36;19.33;;;12.50;;
21424;SDS011;10873;51.132;16.848;2024-02-26T05:51:02;20.90;;;12.13;;
21424;SDS011;10873;51.132;16.848;2024-02-26T05:53:29;18.38;;;12.30;;
21424;SDS011;10873;51.132;16.848;2024-02-26T05:56:00;19.75;;;12.75;;
21424;SDS011;10873;51.132;16.848;2024-02-26T05:58:28;20.75;;;13.05;;
21424;SDS011;10873;51.132;16.848;2024-02-26T06:00:57;18.55;;;11.77;;
21424;SDS011;10873;51.132;16.848;2024-02-26T06:03:24;16.60;;;11.68;;
21424;SDS011;10873;51.132;16.848;2024-02-26T06:05:51;18.13;;;12.30;;
21424;SDS011;10873;51.132;16.848;2024-02-26T06:08:21;16.83;;;11.43;;
21424;SDS011;10873;51.132;16.848;2024-02-26T06:10:47;23.83;;;12.15;;
21424;SDS011;10873;51.132;16.848;2024-02-26T06:13:14;19.38;;;11.75;;
21424;SDS011;10873;51.132;16.848;2024-02-26T06:15:42;32.75;;;13.30;;
21424;SDS011;10873;51.132;16.848;2024-02-26T06:18:10;29.73;;;12.30;;
21424;SDS011;10873;51.132;16.848;2024-02-26T06:20:38;29.58;;;12.15;;
21424;SDS011;10873;51.132;16.848;2024-02-26T06:23:06;27.23;;;11.95;;
21424;SDS011;10873;51.132;16.848;2024-02-26T06:25:32;25.27;;;12.23;;
21424;SDS011;10873;51.132;16.848;2024-02-26T06:28:03;21.92;;;12.68;;
21424;SDS011;10873;51.132;16.848;2024-02-26T06:30:31;24.00;;;12.45;;
21424;SDS011;10873;51.132;16.848;2024-02-26T06:33:00;20.27;;;11.38;;
21424;SDS011;10873;51.132;16.848;2024-02-26T06:35:32;20.20;;;11.75;;
21424;SDS011;10873;51.132;16.848;2024-02-26T06:37:59;23.33;;;11.90;;
21424;SDS011;10873;51.132;16.848;2024-02-26T06:40:30;20.27;;;11.85;;
21424;SDS011;10873;51.132;16.848;2024-02-26T06:42:56;21.73;;;12.90;;
21424;SDS011;10873;51.132;16.848;2024-02-26T06:45:23;18.17;;;12.05;;
21424;SDS011;10873;51.132;16.848;2024-02-26T06:47:49;20.73;;;13.15;;
21424;SDS011;10873;51.132;16.848;2024-02-26T06:50:15;19.75;;;13.80;;
21424;SDS011;10873;51.132;16.848;2024-02-26T06:52:42;20.27;;;13.70;;
21424;SDS011;10873;51.132;16.848;2024-02-26T06:55:10;20.65;;;13.65;;
21424;SDS011;10873;51.132;16.848;2024-02-26T06:57:37;22.63;;;14.32;;
21424;SDS011;10873;51.132;16.848;2024-02-26T07:00:04;24.45;;;15.00;;
21424;SDS011;10873;51.132;16.848;2024-02-26T07:02:31;24.42;;;15.68;;
21424;SDS011;10873;51.132;16.848;2024-02-26T07:04:57;28.40;;;16.40;;
21424;SDS011;10873;51.132;16.848;2024-02-26T07:07:24;25.90;;;16.45;;
21424;SDS011;10873;51.132;16.848;2024-02-26T07:09:50;28.38;;;16.13;;
21424;SDS011;10873;51.132;16.848;2024-02-26T07:12:17;25.67;;;16.25;;
21424;SDS011;10873;51.132;16.848;2024-02-26T07:14:45;22.48;;;15.75;;
21424;SDS011;10873;51.132;16.848;2024-02-26T07:17:14;24.52;;;16.00;;
21424;SDS011;10873;51.132;16.848;2024-02-26T07:19:41;23.52;;;14.88;;
21424;SDS011;10873;51.132;16.848;2024-02-26T07:22:08;21.88;;;14.00;;
21424;SDS011;10873;51.132;16.848;2024-02-26T07:24:34;23.38;;;14.38;;
21424;SDS011;10873;51.132;16.848;2024-02-26T07:27:03;25.50;;;15.15;;
21424;SDS011;10873;51.132;16.848;2024-02-26T07:29:29;20.73;;;13.98;;
21424;SDS011;10873;51.132;16.848;2024-02-26T07:31:57;19.23;;;13.65;;
21424;SDS011;10873;51.132;16.848;2024-02-26T07:34:23;18.42;;;12.98;;
21424;SDS011;10873;51.132;16.848;2024-02-26T07:36:55;22.48;;;13.23;;
21424;SDS011;10873;51.132;16.848;2024-02-26T07:39:23;19.23;;;13.20;;
21424;SDS011;10873;51.132;16.848;2024-02-26T07:41:49;19.58;;;12.85;;
21424;SDS011;10873;51.132;16.848;2024-02-26T07:44:17;19.48;;;12.55;;
21424;SDS011;10873;51.132;16.848;2024-02-26T07:46:45;20.27;;;13.00;;
21424;SDS011;10873;51.132;16.848;2024-02-26T07:49:12;19.08;;;12.32;;
21424;SDS011;10873;51.132;16.848;2024-02-26T07:51:39;17.17;;;12.10;;
21424;SDS011;10873;51.132;16.848;2024-02-26T07:54:05;21.05;;;12.43;;
21424;SDS011;10873;51.132;16.848;2024-02-26T07:56:31;19.88;;;11.73;;
21424;SDS011;10873;51.132;16.848;2024-02-26T07:58:57;17.98;;;12.35;;
21424;SDS011;10873;51.132;16.848;2024-02-26T08:01:24;18.30;;;12.27;;
21424;SDS011;10873;51.132;16.848;2024-02-26T08:03:51;19.48;;;11.82;;
21424;SDS011;10873;51.132;16.848;2024-02-26T08:06:19;17.33;;;10.85;;
21424;SDS011;10873;51.132;16.848;2024-02-26T08:08:44;18.85;;;11.25;;
21424;SDS011;10873;51.132;16.848;2024-02-26T08:11:11;18.05;;;10.88;;
21424;SDS011;10873;51.132;16.848;2024-02-26T08:13:39;17.23;;;10.98;;
21424;SDS011;10873;51.132;16.848;2024-02-26T08:16:05;15.82;;;10.63;;
21424;SDS011;10873;51.132;16.848;2024-02-26T08:18:34;17.17;;;11.00;;
21424;SDS011;10873;51.132;16.848;2024-02-26T08:21:05;14.00;;;10.23;;
21424;SDS011;10873;51.132;16.848;2024-02-26T08:23:32;16.55;;;10.43;;
21424;SDS011;10873;51.132;16.848;2024-02-26T08:25:59;15.00;;;10.02;;
21424;SDS011;10873;51.132;16.848;2024-02-26T08:28:41;13.00;;;9.45;;
21424;SDS011;10873;51.132;16.848;2024-02-26T08:34:14;12.98;;;9.25;;
21424;SDS011;10873;51.132;16.848;2024-02-26T08:36:43;14.38;;;8.80;;
21424;SDS011;10873;51.132;16.848;2024-02-26T08:39:12;12.77;;;9.25;;
21424;SDS011;10873;51.132;16.848;2024-02-26T08:41:40;15.40;;;9.45;;
21424;SDS011;10873;51.132;16.848;2024-02-26T08:44:11;11.93;;;8.55;;
21424;SDS011;10873;51.132;16.848;2024-02-26T08:46:37;11.90;;;8.30;;
21424;SDS011;10873;51.132;16.848;2024-02-26T08:49:03;11.63;;;7.82;;
21424;SDS011;10873;51.132;16.848;2024-02-26T08:51:33;11.18;;;7.80;;
21424;SDS011;10873;51.132;16.848;2024-02-26T08:54:01;11.50;;;7.65;;
21424;SDS011;10873;51.132;16.848;2024-02-26T08:56:29;11.25;;;7.95;;
21424;SDS011;10873;51.132;16.848;2024-02-26T08:58:55;13.10;;;8.38;;
21424;SDS011;10873;51.132;16.848;2024-02-26T09:01:23;12.27;;;7.88;;
21424;SDS011;10873;51.132;16.848;2024-02-26T09:03:50;11.57;;;8.07;;
21424;SDS011;10873;51.132;16.848;2024-02-26T09:06:17;9.70;;;7.10;;
21424;SDS011;10873;51.132;16.848;2024-02-26T09:08:51;11.68;;;7.60;;
21424;SDS011;10873;51.132;16.848;2024-02-26T09:11:20;12.02;;;7.80;;
21424;SDS011;10873;51.132;16.848;2024-02-26T09:13:47;10.70;;;7.90;;
21424;SDS011;10873;51.132;16.848;2024-02-26T09:16:19;11.18;;;7.28;;
21424;SDS011;10873;51.132;16.848;2024-02-26T09:18:45;9.80;;;7.07;;
21424;SDS011;10873;51.132;16.848;2024-02-26T09:21:14;10.65;;;7.13;;
21424;SDS011;10873;51.132;16.848;2024-02-26T09:23:49;11.55;;;7.55;;
21424;SDS011;10873;51.132;16.848;2024-02-26T09:26:17;11.38;;;7.43;;
21424;SDS011;10873;51.132;16.848;2024-02-26T09:28:47;14.98;;;8.52;;
21424;SDS011;10873;51.132;16.848;2024-02-26T09:31:14;19.40;;;8.20;;
21424;SDS011;10873;51.132;16.848;2024-02-26T09:33:43;14.55;;;7.93;;
21424;SDS011;10873;51.132;16.848;2024-02-26T09:36:12;13.65;;;7.63;;
21424;SDS011;10873;51.132;16.848;2024-02-26T09:38:40;12.77;;;7.93;;
21424;SDS011;10873;51.132;16.848;2024-02-26T09:41:07;12.15;;;7.07;;
21424;SDS011;10873;51.132;16.848;2024-02-26T09:43:40;10.18;;;6.57;;
21424;SDS011;10873;51.132;16.848;2024-02-26T09:46:13;11.60;;;7.15;;
21424;SDS011;10873;51.132;16.848;2024-02-26T09:48:43;11.57;;;6.55;;
21424;SDS011;10873;51.132;16.848;2024-02-26T09:51:24;12.75;;;6.57;;
21424;SDS011;10873;51.132;16.848;2024-02-26T09:53:51;11.77;;;6.53;;
21424;SDS011;10873;51.132;16.848;2024-02-26T09:56:18;12.52;;;6.78;;
21424;SDS011;10873;51.132;16.848;2024-02-26T09:58:47;9.55;;;6.05;;
21424;SDS011;10873;51.132;16.848;2024-02-26T10:01:20;9.48;;;5.93;;
21424;SDS011;10873;51.132;16.848;2024-02-26T10:03:51;10.25;;;5.75;;
21424;SDS011;10873;51.132;16.848;2024-02-26T10:06:21;9.77;;;5.45;;
21424;SDS011;10873;51.132;16.848;2024-02-26T10:08:49;8.60;;;5.50;;
21424;SDS011;10873;51.132;16.848;2024-02-26T10:11:18;11.20;;;5.65;;
21424;SDS011;10873;51.132;16.848;2024-02-26T10:13:46;10.65;;;5.30;;
21424;SDS011;10873;51.132;16.848;2024-02-26T10:16:16;7.35;;;5.18;;
21424;SDS011;10873;51.132;16.848;2024-02-26T10:18:53;7.03;;;4.95;;
21424;SDS011;10873;51.132;16.848;2024-02-26T10:21:20;7.70;;;4.55;;
21424;SDS011;10873;51.132;16.848;2024-02-26T10:23:47;8.25;;;5.00;;
21424;SDS011;10873;51.132;16.848;2024-02-26T10:26:14;9.75;;;5.00;;
21424;SDS011;10873;51.132;16.848;2024-02-26T10:28:41;9.45;;;4.75;;
21424;SDS011;10873;51.132;16.848;2024-02-26T10:31:10;8.77;;;4.55;;
21424;SDS011;10873;51.132;16.848;2024-02-26T10:33:37;12.05;;;5.38;;
21424;SDS011;10873;51.132;16.848;2024-02-26T10:36:07;12.35;;;4.47;;
21424;SDS011;10873;51.132;16.848;2024-02-26T10:38:34;7.38;;;4.30;;
21424;SDS011;10873;51.132;16.848;2024-02-26T10:41:07;7.95;;;4.65;;
21424;SDS011;10873;51.132;16.848;2024-02-26T10:43:41;7.72;;;4.43;;
21424;SDS011;10873;51.132;16.848;2024-02-26T10:46:10;6.95;;;4.30;;
21424;SDS011;10873;51.132;16.848;2024-02-26T10:48:43;6.22;;;4.00;;
21424;SDS011;10873;51.132;16.848;2024-02-26T10:51:20;6.75;;;3.92;;
21424;SDS011;10873;51.132;16.848;2024-02-26T10:53:51;5.80;;;3.92;;
21424;SDS011;10873;51.132;16.848;2024-02-26T10:56:24;6.75;;;3.80;;
21424;SDS011;10873;51.132;16.848;2024-02-26T10:58:52;5.18;;;4.05;;
21424;SDS011;10873;51.132;16.848;2024-02-26T11:01:20;6.15;;;3.78;;
21424;SDS011;10873;51.132;16.848;2024-02-26T11:03:48;7.20;;;4.30;;
21424;SDS011;10873;51.132;16.848;2024-02-26T11:06:20;8.02;;;3.80;;
21424;SDS011;10873;51.132;16.848;2024-02-26T11:08:47;5.72;;;3.53;;
21424;SDS011;10873;51.132;16.848;2024-02-26T11:11:14;6.63;;;3.78;;
21424;SDS011;10873;51.132;16.848;2024-02-26T11:13:42;9.48;;;4.10;;
21424;SDS011;10873;51.132;16.848;2024-02-26T11:16:15;8.20;;;4.00;;
21424;SDS011;10873;51.132;16.848;2024-02-26T11:18:48;7.90;;;3.60;;
21424;SDS011;10873;51.132;16.848;2024-02-26T11:21:18;5.75;;;3.75;;
21424;SDS011;10873;51.132;16.848;2024-02-26T11:23:56;8.80;;;3.90;;
21424;SDS011;10873;51.132;16.848;2024-02-26T11:26:23;6.25;;;3.13;;
21424;SDS011;10873;51.132;16.848;2024-02-26T11:28:52;6.35;;;3.55;;
21424;SDS011;10873;51.132;16.848;2024-02-26T11:31:24;6.93;;;3.83;;
21424;SDS011;10873;51.132;16.848;2024-02-26T11:33:52;5.05;;;3.40;;
21424;SDS011;10873;51.132;16.848;2024-02-26T11:36:21;7.45;;;3.65;;
21424;SDS011;10873;51.132;16.848;2024-02-26T11:38:50;7.40;;;3.78;;
21424;SDS011;10873;51.132;16.848;2024-02-26T11:41:18;7.93;;;3.80;;
21424;SDS011;10873;51.132;16.848;2024-02-26T11:43:51;5.75;;;3.63;;
21424;SDS011;10873;51.132;16.848;2024-02-26T11:46:25;6.55;;;3.13;;
21424;SDS011;10873;51.132;16.848;2024-02-26T11:48:53;6.35;;;3.40;;
21424;SDS011;10873;51.132;16.848;2024-02-26T11:51:25;6.03;;;3.80;;
21424;SDS011;10873;51.132;16.848;2024-02-26T11:53:52;6.55;;;3.40;;
21424;SDS011;10873;51.132;16.848;2024-02-26T11:56:22;5.40;;;3.22;;
21424;SDS011;10873;51.132;16.848;2024-02-26T11:58:53;7.15;;;3.65;;
21424;SDS011;10873;51.132;16.848;2024-02-26T12:01:39;5.65;;;3.20;;
21424;SDS011;10873;51.132;16.848;2024-02-26T12:04:14;6.95;;;3.10;;
21424;SDS011;10873;51.132;16.848;2024-02-26T12:09:32;5.78;;;2.80;;
21424;SDS011;10873;51.132;16.848;2024-02-26T12:12:01;4.97;;;2.80;;
21424;SDS011;10873;51.132;16.848;2024-02-26T12:14:32;4.95;;;2.90;;
21424;SDS011;10873;51.132;16.848;2024-02-26T12:16:59;7.40;;;3.42;;
21424;SDS011;10873;51.132;16.848;2024-02-26T12:19:26;5.70;;;2.78;;
21424;SDS011;10873;51.132;16.848;2024-02-26T12:21:53;5.70;;;3.05;;
21424;SDS011;10873;51.132;16.848;2024-02-26T12:24:21;4.93;;;2.28;;
21424;SDS011;10873;51.132;16.848;2024-02-26T12:26:47;3.70;;;2.40;;
21424;SDS011;10873;51.132;16.848;2024-02-26T12:29:14;5.40;;;2.67;;
21424;SDS011;10873;51.132;16.848;2024-02-26T12:31:40;5.53;;;2.50;;
21424;SDS011;10873;51.132;16.848;2024-02-26T12:34:07;5.45;;;2.47;;
21424;SDS011;10873;51.132;16.848;2024-02-26T12:36:35;4.70;;;2.28;;
21424;SDS011;10873;51.132;16.848;2024-02-26T12:39:02;4.63;;;2.53;;
21424;SDS011;10873;51.132;16.848;2024-02-26T12:41:34;6.20;;;2.22;;
21424;SDS011;10873;51.132;16.848;2024-02-26T12:44:01;3.67;;;2.47;;
21424;SDS011;10873;51.132;16.848;2024-02-26T12:46:29;4.00;;;2.22;;
21424;SDS011;10873;51.132;16.848;2024-02-26T12:48:56;3.92;;;2.38;;
21424;SDS011;10873;51.132;16.848;2024-02-26T12:51:24;3.65;;;2.50;;
21424;SDS011;10873;51.132;16.848;2024-02-26T12:53:52;3.70;;;2.42;;
21424;SDS011;10873;51.132;16.848;2024-02-26T12:56:20;4.13;;;2.45;;
21424;SDS011;10873;51.132;16.848;2024-02-26T12:58:50;5.75;;;2.00;;
21424;SDS011;10873;51.132;16.848;2024-02-26T13:01:17;6.35;;;2.53;;
21424;SDS011;10873;51.132;16.848;2024-02-26T13:03:49;6.07;;;2.90;;
21424;SDS011;10873;51.132;16.848;2024-02-26T13:06:16;4.35;;;2.50;;
21424;SDS011;10873;51.132;16.848;2024-02-26T13:08:48;4.63;;;2.70;;
21424;SDS011;10873;51.132;16.848;2024-02-26T13:11:18;4.78;;;2.22;;
21424;SDS011;10873;51.132;16.848;2024-02-26T13:13:47;4.93;;;2.10;;
21424;SDS011;10873;51.132;16.848;2024-02-26T13:16:15;3.53;;;2.50;;
21424;SDS011;10873;51.132;16.848;2024-02-26T13:18:42;5.03;;;2.40;;
21424;SDS011;10873;51.132;16.848;2024-02-26T13:21:12;6.22;;;2.42;;
21424;SDS011;10873;51.132;16.848;2024-02-26T13:23:40;4.93;;;2.30;;
21424;SDS011;10873;51.132;16.848;2024-02-26T13:26:09;4.88;;;2.42;;
21424;SDS011;10873;51.132;16.848;2024-02-26T13:28:38;4.13;;;2.13;;
21424;SDS011;10873;51.132;16.848;2024-02-26T13:31:04;3.95;;;2.38;;
21424;SDS011;10873;51.132;16.848;2024-02-26T13:33:34;5.90;;;2.47;;
21424;SDS011;10873;51.132;16.848;2024-02-26T13:36:01;5.07;;;2.92;;
21424;SDS011;10873;51.132;16.848;2024-02-26T13:38:28;9.43;;;2.33;;
21424;SDS011;10873;51.132;16.848;2024-02-26T13:40:56;5.03;;;2.60;;
21424;SDS011;10873;51.132;16.848;2024-02-26T13:43:22;5.63;;;2.40;;
21424;SDS011;10873;51.132;16.848;2024-02-26T13:45:49;7.38;;;2.53;;
21424;SDS011;10873;51.132;16.848;2024-02-26T13:48:16;5.78;;;3.20;;
21424;SDS011;10873;51.132;16.848;2024-02-26T13:50:47;6.72;;;2.55;;
21424;SDS011;10873;51.132;16.848;2024-02-26T13:53:13;5.78;;;2.65;;
21424;SDS011;10873;51.132;16.848;2024-02-26T13:55:40;8.57;;;3.15;;
21424;SDS011;10873;51.132;16.848;2024-02-26T13:58:11;8.30;;;2.92;;
21424;SDS011;10873;51.132;16.848;2024-02-26T14:00:39;7.47;;;3.10;;
21424;SDS011;10873;51.132;16.848;2024-02-26T14:03:06;6.18;;;2.95;;
21424;SDS011;10873;51.132;16.848;2024-02-26T14:05:33;5.88;;;2.75;;
21424;SDS011;10873;51.132;16.848;2024-02-26T14:07:59;5.85;;;3.00;;
21424;SDS011;10873;51.132;16.848;2024-02-26T14:10:26;6.40;;;2.60;;
21424;SDS011;10873;51.132;16.848;2024-02-26T14:12:52;10.68;;;2.95;;
21424;SDS011;10873;51.132;16.848;2024-02-26T14:15:18;5.28;;;2.92;;
21424;SDS011;10873;51.132;16.848;2024-02-26T14:17:44;9.50;;;3.00;;
21424;SDS011;10873;51.132;16.848;2024-02-26T14:20:11;5.15;;;2.80;;
21424;SDS011;10873;51.132;16.848;2024-02-26T14:22:37;7.50;;;2.97;;
21424;SDS011;10873;51.132;16.848;2024-02-26T14:25:06;4.75;;;2.60;;
21424;SDS011;10873;51.132;16.848;2024-02-26T14:27:34;8.45;;;2.95;;